Capanema, Brazil
Current Conditions -  °F | °C
As of 11:00 AM on Friday 28 Nov 2014 (Local Time) from SBBE Reporting Station
Broken Clouds Broken Clouds  
Wind Chill: 84°   Ceiling: 3000
Heat Index: 88°   Visibility: 6mi
Dew Point: 70°   Wind: 13mph
Humidity: 62%   Direction: 100°E
Pressure: 29.91"   Gusts: NA
Location:  1.19°S, 47.18°W
Report Text: SBBE 281400Z 10011KT 9999 BKN030 29/21 Q1013
Loading
Personal Weather Stations






























Interactive Weather Map New forecast layout! Learn more

10-Day Weather Forecast

Advertisements
Track Severe Weather on mobile